Time;durP1;ratioP1;P1;durP2;ratioP2;P2;SDS_P1;SDS_P2;PMS_P1;PMS_P2;Temp;Humidity;BMP_temperature;BMP_pressure;BME280_temperature;BME280_humidity;BME280_pressure;Samples;Min_cycle;Max_cycle;Signal;HPM_P1;HPM_P2
2022/03/28 00:01:38;;;;;;;;;;;19.10;29.00;;;;;;8365362;28;20361;-48
2022/03/28 00:05:39;;;;;;;;;;;19.10;29.00;;;;;;8364404;28;19969;-49
2022/03/28 00:09:39;;;;;;;;;;;19.00;28.90;;;;;;8365290;28;20388;-48
2022/03/28 00:13:40;;;;;;;;;;;19.00;29.00;;;;;;8364919;28;19925;-47
2022/03/28 00:17:40;;;;;;;;;;;19.00;29.00;;;;;;8364181;28;19971;-47
2022/03/28 00:21:41;;;;;;;;;;;19.00;29.00;;;;;;8364722;28;19924;-47
2022/03/28 00:25:44;;;;;;;;;;;19.00;29.00;;;;;;8364497;28;19940;-51
2022/03/28 00:29:45;;;;;;;;;;;19.00;29.00;;;;;;8364217;28;19962;-49
2022/03/28 00:33:45;;;;;;;;;;;19.00;29.00;;;;;;8364244;28;19987;-48
2022/03/28 00:37:46;;;;;;;;;;;19.00;29.00;;;;;;8364429;28;19955;-46
2022/03/28 00:41:47;;;;;;;;;;;18.90;29.00;;;;;;8363528;28;20374;-47
2022/03/28 00:45:48;;;;;;;;;;;19.00;29.10;;;;;;8364086;28;19939;-48
2022/03/28 00:49:48;;;;;;;;;;;19.00;29.10;;;;;;8364145;28;19917;-48
2022/03/28 00:53:50;;;;;;;;;;;18.90;29.00;;;;;;8363302;28;19987;-47
2022/03/28 00:57:50;;;;;;;;;;;18.90;29.00;;;;;;8364088;28;20313;-48
2022/03/28 01:01:51;;;;;;;;;;;18.90;29.10;;;;;;8353717;28;19920;-49
2022/03/28 01:05:52;;;;;;;;;;;18.90;29.00;;;;;;8329937;28;19917;-47
2022/03/28 01:09:55;;;;;;;;;;;18.90;29.10;;;;;;8330600;28;19917;-47
2022/03/28 01:13:57;;;;;;;;;;;18.90;29.10;;;;;;8330171;28;19925;-47
2022/03/28 01:18:07;;;;;;;;;;;18.90;29.10;;;;;;8329886;28;19939;-47
2022/03/28 01:22:07;;;;;;;;;;;18.80;29.10;;;;;;8330521;28;19940;-47
2022/03/28 01:26:08;;;;;;;;;;;18.80;29.10;;;;;;8330154;28;19925;-47
2022/03/28 01:30:09;;;;;;;;;;;18.80;29.10;;;;;;8329975;28;19913;-48
2022/03/28 01:34:16;;;;;;;;;;;18.80;29.10;;;;;;8329860;28;20012;-48
2022/03/28 01:38:19;;;;;;;;;;;18.80;29.10;;;;;;8334825;28;20424;-49
2022/03/28 01:42:19;;;;;;;;;;;18.80;29.10;;;;;;8336517;28;19988;-48
2022/03/28 01:46:20;;;;;;;;;;;18.80;29.20;;;;;;8336484;28;20389;-47
2022/03/28 01:50:20;;;;;;;;;;;18.70;29.10;;;;;;8336127;28;20004;-48
2022/03/28 01:54:21;;;;;;;;;;;18.70;29.10;;;;;;8336225;28;19925;-49
2022/03/28 01:58:21;;;;;;;;;;;18.70;29.10;;;;;;8336442;28;19925;-48
2022/03/28 02:02:22;;;;;;;;;;;18.70;29.10;;;;;;8335692;28;19920;-51
2022/03/28 02:06:23;;;;;;;;;;;18.70;29.10;;;;;;8335830;28;19920;-49
2022/03/28 02:10:23;;;;;;;;;;;18.70;29.10;;;;;;8335984;28;19917;-47
2022/03/28 02:14:24;;;;;;;;;;;18.70;29.10;;;;;;8335341;28;19932;-49
2022/03/28 02:18:24;;;;;;;;;;;18.70;29.20;;;;;;8335533;28;19917;-48
2022/03/28 02:22:25;;;;;;;;;;;18.70;29.20;;;;;;8335340;28;20280;-48
2022/03/28 02:26:25;;;;;;;;;;;18.70;29.20;;;;;;8334776;28;19917;-46
2022/03/28 02:30:26;;;;;;;;;;;18.60;29.20;;;;;;8335713;28;19917;-46
2022/03/28 02:34:26;;;;;;;;;;;18.60;29.10;;;;;;8335155;28;19925;-47
2022/03/28 02:38:27;;;;;;;;;;;18.60;29.20;;;;;;8334468;28;19921;-49
2022/03/28 02:42:28;;;;;;;;;;;18.60;29.20;;;;;;8334693;28;19921;-47
2022/03/28 02:46:29;;;;;;;;;;;18.60;29.10;;;;;;8334342;28;19914;-47
2022/03/28 02:50:31;;;;;;;;;;;18.60;29.20;;;;;;8333439;28;19956;-47
2022/03/28 02:54:31;;;;;;;;;;;18.60;29.20;;;;;;8334757;28;19925;-49
2022/03/28 02:58:31;;;;;;;;;;;18.60;29.20;;;;;;8334245;28;19917;-46
2022/03/28 03:02:32;;;;;;;;;;;18.60;29.20;;;;;;8333955;28;19924;-45
2022/03/28 03:06:32;;;;;;;;;;;18.50;29.10;;;;;;8334079;28;20011;-47
2022/03/28 03:10:33;;;;;;;;;;;18.50;29.20;;;;;;8334176;28;19914;-47
2022/03/28 03:14:33;;;;;;;;;;;18.50;29.20;;;;;;8333536;28;20355;-46
2022/03/28 03:18:34;;;;;;;;;;;18.50;29.20;;;;;;8333625;28;19918;-48
2022/03/28 03:22:34;;;;;;;;;;;18.50;29.20;;;;;;8333509;28;19928;-48
2022/03/28 03:26:35;;;;;;;;;;;18.50;29.20;;;;;;8332928;28;19921;-47
2022/03/28 03:30:35;;;;;;;;;;;18.40;29.20;;;;;;8333500;28;19913;-49
2022/03/28 03:34:36;;;;;;;;;;;18.40;29.20;;;;;;8333113;28;19991;-49
2022/03/28 03:38:36;;;;;;;;;;;18.40;29.20;;;;;;8332644;28;19917;-49
2022/03/28 03:42:36;;;;;;;;;;;18.40;29.20;;;;;;8333207;28;19917;-46
2022/03/28 03:46:37;;;;;;;;;;;18.40;29.20;;;;;;8332832;28;20405;-47
2022/03/28 03:50:37;;;;;;;;;;;18.40;29.20;;;;;;8332422;28;20329;-50
2022/03/28 03:54:38;;;;;;;;;;;18.40;29.30;;;;;;8332676;28;19951;-51
2022/03/28 03:58:38;;;;;;;;;;;18.40;29.30;;;;;;8332314;28;20393;-47
2022/03/28 04:02:39;;;;;;;;;;;18.30;29.30;;;;;;8331893;28;19917;-50
2022/03/28 04:06:39;;;;;;;;;;;18.30;29.20;;;;;;8332217;28;19921;-49
2022/03/28 04:10:42;;;;;;;;;;;18.30;29.30;;;;;;8339009;28;19921;-49
2022/03/28 04:14:43;;;;;;;;;;;18.30;29.20;;;;;;8364342;28;19968;-52
2022/03/28 04:18:43;;;;;;;;;;;18.30;29.30;;;;;;8364905;28;19924;-48
2022/03/28 04:22:45;;;;;;;;;;;18.40;29.30;;;;;;8364616;28;19913;-48
2022/03/28 04:26:46;;;;;;;;;;;18.30;29.30;;;;;;8364108;28;19948;-49
2022/03/28 04:30:46;;;;;;;;;;;18.30;29.30;;;;;;8364780;28;20289;-47
2022/03/28 04:34:47;;;;;;;;;;;18.20;29.20;;;;;;8364176;28;20304;-47
2022/03/28 04:38:47;;;;;;;;;;;18.20;29.30;;;;;;8363727;28;19924;-49
2022/03/28 04:42:48;;;;;;;;;;;18.20;29.30;;;;;;8364134;28;20348;-48
2022/03/28 04:46:49;;;;;;;;;;;18.20;29.30;;;;;;8364141;28;19917;-51
2022/03/28 04:50:50;;;;;;;;;;;18.20;29.30;;;;;;8363645;28;19921;-48
2022/03/28 04:54:50;;;;;;;;;;;18.20;29.30;;;;;;8363859;28;20362;-48
2022/03/28 04:58:51;;;;;;;;;;;18.20;29.30;;;;;;8363668;28;19917;-47
2022/03/28 05:02:51;;;;;;;;;;;18.20;29.30;;;;;;8363064;28;20011;-48
2022/03/28 05:06:52;;;;;;;;;;;18.20;29.30;;;;;;8363395;28;19976;-48
2022/03/28 05:10:52;;;;;;;;;;;18.20;29.30;;;;;;8362925;28;20046;-48
2022/03/28 05:14:54;;;;;;;;;;;18.10;29.30;;;;;;8362760;28;19978;-47
2022/03/28 05:18:54;;;;;;;;;;;18.10;29.30;;;;;;8363110;28;20381;-47
2022/03/28 05:22:54;;;;;;;;;;;18.10;29.30;;;;;;8363264;28;19995;-47
2022/03/28 05:26:55;;;;;;;;;;;18.10;29.30;;;;;;8362659;28;19916;-48
2022/03/28 05:30:57;;;;;;;;;;;18.10;29.30;;;;;;8362805;28;19917;-48
2022/03/28 05:34:57;;;;;;;;;;;18.10;29.30;;;;;;8345279;28;20040;-48
2022/03/28 05:38:58;;;;;;;;;;;18.00;29.30;;;;;;8329355;28;19917;-48
2022/03/28 05:42:58;;;;;;;;;;;18.10;29.30;;;;;;8329827;28;19956;-47
2022/03/28 05:46:59;;;;;;;;;;;18.00;29.30;;;;;;8330164;28;19959;-49
2022/03/28 05:50:59;;;;;;;;;;;18.00;29.30;;;;;;8329165;28;19917;-47
2022/03/28 05:55:00;;;;;;;;;;;18.00;29.30;;;;;;8329467;28;20008;-48
2022/03/28 05:59:02;;;;;;;;;;;18.10;29.40;;;;;;8329751;28;19917;-48
2022/03/28 06:03:04;;;;;;;;;;;18.10;29.40;;;;;;8328913;28;19918;-48
2022/03/28 06:07:05;;;;;;;;;;;18.00;29.30;;;;;;8329771;28;19913;-48
2022/03/28 06:11:06;;;;;;;;;;;18.00;29.30;;;;;;8329445;28;20293;-47
2022/03/28 06:15:07;;;;;;;;;;;18.00;29.30;;;;;;8328570;28;19925;-47
2022/03/28 06:19:09;;;;;;;;;;;18.00;29.30;;;;;;8328690;28;21315;-49
2022/03/28 06:23:12;;;;;;;;;;;18.00;29.30;;;;;;8332359;28;19936;-49
2022/03/28 06:27:12;;;;;;;;;;;18.10;29.30;;;;;;8335486;28;20000;-47
2022/03/28 06:31:13;;;;;;;;;;;18.10;29.20;;;;;;8335404;28;20400;-47
2022/03/28 06:35:13;;;;;;;;;;;18.20;29.10;;;;;;8334829;28;20021;-48
2022/03/28 06:39:15;;;;;;;;;;;18.40;29.00;;;;;;8334969;28;19931;-48
2022/03/28 06:43:16;;;;;;;;;;;18.40;28.90;;;;;;8334498;28;19921;-47
2022/03/28 06:47:17;;;;;;;;;;;18.40;28.90;;;;;;8334105;28;19913;-48
2022/03/28 06:51:17;;;;;;;;;;;18.40;28.90;;;;;;8334356;28;19917;-47
2022/03/28 06:55:18;;;;;;;;;;;18.30;28.90;;;;;;8334396;28;19959;-47
2022/03/28 06:59:20;;;;;;;;;;;18.30;29.00;;;;;;8333793;28;19963;-49
2022/03/28 07:03:20;;;;;;;;;;;18.20;29.00;;;;;;8334523;28;19956;-47
2022/03/28 07:07:20;;;;;;;;;;;18.20;29.10;;;;;;8334150;28;19913;-48
2022/03/28 07:11:21;;;;;;;;;;;18.20;29.10;;;;;;8333102;28;20024;-53
2022/03/28 07:15:21;;;;;;;;;;;18.20;29.10;;;;;;8333564;28;19932;-52
2022/03/28 07:19:22;;;;;;;;;;;18.20;29.10;;;;;;8342901;28;19924;-47
2022/03/28 07:23:23;;;;;;;;;;;18.20;29.20;;;;;;8365876;28;19917;-47
2022/03/28 07:27:23;;;;;;;;;;;18.20;29.20;;;;;;8366963;28;20285;-48
2022/03/28 07:31:24;;;;;;;;;;;18.20;29.20;;;;;;8366301;28;19916;-48
2022/03/28 07:35:25;;;;;;;;;;;18.20;29.10;;;;;;8364505;28;19925;-48
2022/03/28 07:39:25;;;;;;;;;;;18.20;29.10;;;;;;8365950;28;19939;-47
2022/03/28 07:43:26;;;;;;;;;;;18.20;29.10;;;;;;8366049;28;19923;-47
2022/03/28 07:47:27;;;;;;;;;;;18.30;29.10;;;;;;8365465;28;19913;-47
2022/03/28 07:51:27;;;;;;;;;;;18.30;29.00;;;;;;8365643;28;19917;-49
2022/03/28 07:55:28;;;;;;;;;;;18.30;29.00;;;;;;8361735;28;20007;-46
2022/03/28 07:59:29;;;;;;;;;;;18.30;29.10;;;;;;8338480;28;19925;-48
2022/03/28 08:03:30;;;;;;;;;;;18.30;29.10;;;;;;8339342;28;19964;-50
2022/03/28 08:07:31;;;;;;;;;;;18.20;29.10;;;;;;8347111;28;19928;-52
2022/03/28 08:11:31;;;;;;;;;;;18.20;29.10;;;;;;8336734;28;19917;-51
2022/03/28 08:15:33;;;;;;;;;;;18.20;29.20;;;;;;8334920;28;19932;-48
2022/03/28 08:19:34;;;;;;;;;;;18.20;29.10;;;;;;8331908;28;19927;-48
2022/03/28 08:23:35;;;;;;;;;;;18.20;29.20;;;;;;8348448;28;19947;-48
2022/03/28 08:27:35;;;;;;;;;;;18.20;29.20;;;;;;8358182;28;19921;-50
2022/03/28 08:31:36;;;;;;;;;;;18.20;29.20;;;;;;8348258;28;19945;-47
2022/03/28 08:35:37;;;;;;;;;;;18.20;29.20;;;;;;8332407;28;19925;-50
2022/03/28 08:39:37;;;;;;;;;;;18.20;29.20;;;;;;8349552;28;19916;-47
2022/03/28 08:43:38;;;;;;;;;;;18.20;29.20;;;;;;8344002;28;20251;-47
2022/03/28 08:47:42;;;;;;;;;;;18.20;29.20;;;;;;8358074;28;20461;-48
2022/03/28 08:51:42;;;;;;;;;;;18.30;29.30;;;;;;8363141;28;19926;-50
2022/03/28 08:55:43;;;;;;;;;;;18.20;29.20;;;;;;8355577;28;19925;-47
2022/03/28 08:59:44;;;;;;;;;;;18.30;29.30;;;;;;8331782;28;20219;-47
2022/03/28 09:03:47;;;;;;;;;;;18.30;29.30;;;;;;8335142;28;21010;-48
2022/03/28 09:07:47;;;;;;;;;;;18.30;29.30;;;;;;8337439;28;19970;-49
2022/03/28 09:11:50;;;;;;;;;;;18.30;29.30;;;;;;8330705;28;20362;-47
2022/03/28 09:15:53;;;;;;;;;;;18.30;29.30;;;;;;8339388;28;20431;-48
2022/03/28 09:19:59;;;;;;;;;;;18.30;29.30;;;;;;8337389;28;20032;-47
2022/03/28 09:24:02;;;;;;;;;;;18.30;29.30;;;;;;8359111;28;20000;-47
2022/03/28 09:28:03;;;;;;;;;;;18.30;29.30;;;;;;8363478;28;19962;-49
2022/03/28 09:32:18;;;;;;;;;;;18.30;29.30;;;;;;8339034;28;19916;-48
2022/03/28 09:36:37;;;;;;;;;;;18.30;29.30;;;;;;8339561;28;19924;-46
2022/03/28 09:40:39;;;;;;;;;;;18.30;29.30;;;;;;8362754;28;19913;-48
2022/03/28 09:44:42;;;;;;;;;;;18.40;29.40;;;;;;8362123;28;19959;-48
2022/03/28 09:48:45;;;;;;;;;;;18.40;29.30;;;;;;8363027;28;19913;-47
2022/03/28 09:52:45;;;;;;;;;;;18.40;29.40;;;;;;8362674;28;19975;-50
2022/03/28 09:57:04;;;;;;;;;;;18.40;29.40;;;;;;8363408;28;19929;-50
2022/03/28 10:01:25;;;;;;;;;;;18.40;29.40;;;;;;8367138;28;20027;-53
2022/03/28 10:05:25;;;;;;;;;;;18.40;29.40;;;;;;8335111;28;19920;-50
2022/03/28 10:09:26;;;;;;;;;;;18.40;29.40;;;;;;8336347;28;19914;-47
2022/03/28 10:13:26;;;;;;;;;;;18.40;29.40;;;;;;8335909;28;20381;-51
2022/03/28 10:17:28;;;;;;;;;;;18.40;29.40;;;;;;8335248;28;19939;-50
2022/03/28 10:21:31;;;;;;;;;;;18.50;29.80;;;;;;8335668;28;19917;-49
2022/03/28 10:25:32;;;;;;;;;;;18.50;29.40;;;;;;8335386;28;20370;-46
2022/03/28 10:29:34;;;;;;;;;;;18.50;29.40;;;;;;8335016;28;19917;-46
2022/03/28 10:33:34;;;;;;;;;;;18.50;29.40;;;;;;8335448;28;20297;-52
2022/03/28 10:37:39;;;;;;;;;;;18.50;29.40;;;;;;8335024;28;19967;-47
2022/03/28 10:41:40;;;;;;;;;;;18.60;29.40;;;;;;8334238;28;19917;-53
2022/03/28 10:45:46;;;;;;;;;;;18.60;29.40;;;;;;8334715;28;19928;-47
2022/03/28 10:49:52;;;;;;;;;;;18.60;29.40;;;;;;8334672;28;19921;-51
2022/03/28 10:54:13;;;;;;;;;;;18.60;29.40;;;;;;8334105;28;19944;-51
2022/03/28 10:58:19;;;;;;;;;;;18.60;29.40;;;;;;8334399;28;19955;-52
2022/03/28 11:02:29;;;;;;;;;;;18.60;29.40;;;;;;8333707;28;20393;-52
2022/03/28 11:06:45;;;;;;;;;;;18.60;29.40;;;;;;8334351;28;20290;-50
2022/03/28 11:11:04;;;;;;;;;;;18.70;29.40;;;;;;8332694;28;19913;-48
2022/03/28 11:15:21;;;;;;;;;;;18.70;29.40;;;;;;8333077;28;20011;-49
2022/03/28 11:19:21;;;;;;;;;;;18.70;29.40;;;;;;8333659;28;19913;-52
2022/03/28 11:23:22;;;;;;;;;;;18.70;29.40;;;;;;8333261;28;20401;-48
2022/03/28 11:27:24;;;;;;;;;;;18.70;29.40;;;;;;8333434;28;19917;-50
2022/03/28 11:31:24;;;;;;;;;;;18.70;29.40;;;;;;8333213;28;19913;-48
2022/03/28 11:35:26;;;;;;;;;;;18.80;29.40;;;;;;8332565;28;19925;-47
2022/03/28 11:39:27;;;;;;;;;;;18.70;29.40;;;;;;8333693;28;20004;-52
2022/03/28 11:43:32;;;;;;;;;;;18.80;29.40;;;;;;8333103;28;20004;-49
2022/03/28 11:47:34;;;;;;;;;;;18.80;29.40;;;;;;8332395;28;20386;-52
2022/03/28 11:51:36;;;;;;;;;;;18.90;29.40;;;;;;8332936;28;19963;-49
2022/03/28 11:55:36;;;;;;;;;;;18.80;29.40;;;;;;8332479;28;19960;-50
2022/03/28 11:59:41;;;;;;;;;;;18.80;29.40;;;;;;8332065;28;20290;-51
2022/03/28 12:03:49;;;;;;;;;;;18.80;29.40;;;;;;8332827;28;19913;-51
2022/03/28 12:07:49;;;;;;;;;;;18.90;29.40;;;;;;8332117;28;19924;-48
2022/03/28 12:11:54;;;;;;;;;;;18.90;29.40;;;;;;8331591;28;19925;-48
2022/03/28 12:15:55;;;;;;;;;;;18.90;29.40;;;;;;8331812;28;19936;-47
2022/03/28 12:20:06;;;;;;;;;;;18.90;29.40;;;;;;8331586;28;19913;-52
2022/03/28 12:24:06;;;;;;;;;;;18.90;29.40;;;;;;8331491;28;19913;-47
2022/03/28 12:28:15;;;;;;;;;;;18.90;29.80;;;;;;8331295;28;19917;-48
2022/03/28 12:32:16;;;;;;;;;;;19.00;29.40;;;;;;8330727;28;19928;-47
2022/03/28 12:36:24;;;;;;;;;;;19.00;29.40;;;;;;8331455;28;20340;-50
2022/03/28 12:40:25;;;;;;;;;;;19.00;29.40;;;;;;8331444;28;20294;-49
2022/03/28 12:44:26;;;;;;;;;;;19.00;29.40;;;;;;8330937;28;19913;-48
2022/03/28 12:48:44;;;;;;;;;;;19.00;29.30;;;;;;8331405;28;20444;-51
2022/03/28 12:52:44;;;;;;;;;;;19.00;29.30;;;;;;8331084;28;19971;-50
2022/03/28 12:56:45;;;;;;;;;;;19.10;29.30;;;;;;8330742;28;20370;-48
2022/03/28 13:00:46;;;;;;;;;;;19.00;29.30;;;;;;8331072;28;19948;-46
2022/03/28 13:04:49;;;;;;;;;;;19.10;29.30;;;;;;8330931;28;19921;-46
2022/03/28 13:08:49;;;;;;;;;;;19.10;29.40;;;;;;8336756;28;19963;-47
2022/03/28 13:12:54;;;;;;;;;;;19.10;29.40;;;;;;8363543;28;19917;-50
2022/03/28 13:17:08;;;;;;;;;;;19.10;29.40;;;;;;8363255;28;20282;-49
2022/03/28 13:21:13;;;;;;;;;;;19.10;29.30;;;;;;8362696;28;19921;-47
2022/03/28 13:25:20;;;;;;;;;;;19.10;29.30;;;;;;8363309;28;20285;-47
2022/03/28 13:29:25;;;;;;;;;;;19.10;29.30;;;;;;8362826;28;19956;-48
2022/03/28 13:33:25;;;;;;;;;;;19.10;29.30;;;;;;8362525;28;20258;-51
2022/03/28 13:37:26;;;;;;;;;;;19.20;29.20;;;;;;8363010;28;19913;-46
2022/03/28 13:41:26;;;;;;;;;;;19.20;29.30;;;;;;8362501;28;20305;-47
2022/03/28 13:45:28;;;;;;;;;;;19.20;29.20;;;;;;8363193;28;19920;-50
2022/03/28 13:49:29;;;;;;;;;;;19.20;29.20;;;;;;8363298;28;19971;-51
2022/03/28 13:53:31;;;;;;;;;;;19.20;29.10;;;;;;8361851;28;19983;-51
2022/03/28 13:57:31;;;;;;;;;;;19.20;29.10;;;;;;8362856;28;19964;-48
2022/03/28 14:01:32;;;;;;;;;;;19.20;29.10;;;;;;8362791;28;19924;-49
2022/03/28 14:05:32;;;;;;;;;;;19.20;29.10;;;;;;8362187;28;19924;-46
2022/03/28 14:09:33;;;;;;;;;;;19.30;29.10;;;;;;8362781;28;20293;-49
2022/03/28 14:13:34;;;;;;;;;;;19.30;29.10;;;;;;8362199;28;19959;-47
2022/03/28 14:17:37;;;;;;;;;;;19.30;29.20;;;;;;8361409;28;19962;-47
2022/03/28 14:21:37;;;;;;;;;;;19.30;29.20;;;;;;8362322;28;19913;-50
2022/03/28 14:25:38;;;;;;;;;;;19.30;29.10;;;;;;8361708;28;19917;-46
2022/03/28 14:29:40;;;;;;;;;;;19.30;29.10;;;;;;8361749;28;19923;-51
2022/03/28 14:33:40;;;;;;;;;;;19.30;29.00;;;;;;8361908;28;19971;-47
2022/03/28 14:37:41;;;;;;;;;;;19.30;29.00;;;;;;8361906;28;19916;-49
2022/03/28 14:41:41;;;;;;;;;;;19.40;29.10;;;;;;8361414;28;19916;-51
2022/03/28 14:50:02;;;;;;;;;;;19.30;29.00;;;;;;8371005;28;19924;-50
2022/03/28 14:54:02;;;;;;;;;;;19.40;29.10;;;;;;8366972;28;19925;-47
2022/03/28 14:58:03;;;;;;;;;;;19.40;29.00;;;;;;8367294;28;20302;-48
2022/03/28 15:02:03;;;;;;;;;;;19.30;29.00;;;;;;8366991;28;19966;-46
2022/03/28 15:06:04;;;;;;;;;;;19.40;28.90;;;;;;8366272;28;19917;-47
2022/03/28 15:10:04;;;;;;;;;;;19.40;29.00;;;;;;8367402;28;19945;-48
2022/03/28 15:14:06;;;;;;;;;;;19.40;29.00;;;;;;8366902;28;19933;-46
2022/03/28 15:18:08;;;;;;;;;;;19.40;29.10;;;;;;8365781;28;20297;-48
2022/03/28 15:22:08;;;;;;;;;;;19.40;29.10;;;;;;8366293;28;19936;-47
2022/03/28 15:26:12;;;;;;;;;;;19.40;29.00;;;;;;8365816;28;19917;-47
2022/03/28 15:30:12;;;;;;;;;;;19.40;29.00;;;;;;8366763;28;19917;-48
2022/03/28 15:34:15;;;;;;;;;;;19.40;29.10;;;;;;8365833;28;19929;-52
2022/03/28 15:38:15;;;;;;;;;;;19.40;29.10;;;;;;8365666;28;19921;-48
2022/03/28 15:42:16;;;;;;;;;;;19.40;29.10;;;;;;8366166;28;19920;-50
2022/03/28 15:46:16;;;;;;;;;;;19.40;29.10;;;;;;8366007;28;19912;-47
2022/03/28 15:50:17;;;;;;;;;;;19.40;29.10;;;;;;8365556;28;19923;-46
2022/03/28 15:54:22;;;;;;;;;;;19.40;29.10;;;;;;8364990;28;19932;-48
2022/03/28 15:58:22;;;;;;;;;;;19.40;29.10;;;;;;8365779;28;19924;-48
2022/03/28 16:02:22;;;;;;;;;;;19.40;29.20;;;;;;8365007;28;19924;-50
2022/03/28 16:06:23;;;;;;;;;;;19.40;29.10;;;;;;8365447;28;19967;-49
2022/03/28 16:10:23;;;;;;;;;;;19.40;29.10;;;;;;8344535;28;19959;-48
2022/03/28 16:14:24;;;;;;;;;;;19.40;29.10;;;;;;8331674;28;19932;-51
2022/03/28 16:18:24;;;;;;;;;;;19.40;29.10;;;;;;8332114;28;19924;-51
2022/03/28 16:22:25;;;;;;;;;;;19.40;29.10;;;;;;8331674;28;20062;-48
2022/03/28 16:26:25;;;;;;;;;;;19.40;29.10;;;;;;8331096;28;19913;-47
2022/03/28 16:30:26;;;;;;;;;;;19.40;29.50;;;;;;8331843;28;19913;-47
2022/03/28 16:34:27;;;;;;;;;;;19.40;29.00;;;;;;8331563;28;19964;-49
2022/03/28 16:38:27;;;;;;;;;;;19.50;29.10;;;;;;8330912;28;19971;-47
2022/03/28 16:42:28;;;;;;;;;;;19.50;29.10;;;;;;8330888;28;19918;-50
2022/03/28 16:46:29;;;;;;;;;;;19.50;29.10;;;;;;8331055;28;19916;-46
2022/03/28 16:50:30;;;;;;;;;;;19.50;29.10;;;;;;8330191;28;20018;-48
2022/03/28 16:54:30;;;;;;;;;;;19.50;29.10;;;;;;8330849;28;20357;-51
2022/03/28 16:58:31;;;;;;;;;;;19.40;29.10;;;;;;8330544;28;20291;-50
2022/03/28 17:02:31;;;;;;;;;;;19.50;29.10;;;;;;8330103;28;19923;-48
2022/03/28 17:06:32;;;;;;;;;;;19.40;29.10;;;;;;8329586;28;20385;-47
2022/03/28 17:10:32;;;;;;;;;;;19.40;29.10;;;;;;8330022;28;19917;-47
2022/03/28 17:14:33;;;;;;;;;;;19.50;29.10;;;;;;8329648;28;20019;-51
2022/03/28 17:18:34;;;;;;;;;;;19.40;29.10;;;;;;8329735;28;20333;-49
2022/03/28 17:22:35;;;;;;;;;;;19.40;29.10;;;;;;8330068;28;19963;-50
2022/03/28 17:26:39;;;;;;;;;;;19.40;29.10;;;;;;8329625;28;19917;-50
2022/03/28 17:30:39;;;;;;;;;;;19.40;29.10;;;;;;8329899;28;19917;-47
2022/03/28 17:34:39;;;;;;;;;;;19.40;29.10;;;;;;8329774;28;19925;-51
2022/03/28 17:38:40;;;;;;;;;;;19.40;29.20;;;;;;8329489;28;19923;-46
2022/03/28 17:42:40;;;;;;;;;;;19.40;29.20;;;;;;8329678;28;19921;-48
2022/03/28 17:46:41;;;;;;;;;;;19.40;29.20;;;;;;8330112;28;19913;-48
2022/03/28 17:50:41;;;;;;;;;;;19.40;29.20;;;;;;8329292;28;19917;-50
2022/03/28 17:54:43;;;;;;;;;;;19.40;29.20;;;;;;8329464;28;19925;-48
2022/03/28 17:58:43;;;;;;;;;;;19.40;29.20;;;;;;8329514;28;20255;-47
2022/03/28 18:02:44;;;;;;;;;;;19.40;29.20;;;;;;8328594;28;19918;-48
2022/03/28 18:06:44;;;;;;;;;;;19.40;29.20;;;;;;8329737;28;20282;-47
2022/03/28 18:10:45;;;;;;;;;;;19.40;29.20;;;;;;8329359;28;19917;-49
2022/03/28 18:14:45;;;;;;;;;;;19.40;29.20;;;;;;8329604;28;19925;-49
2022/03/28 18:18:46;;;;;;;;;;;19.40;29.70;;;;;;8331726;28;19917;-48
2022/03/28 18:22:47;;;;;;;;;;;19.40;29.20;;;;;;8335459;28;19921;-48
2022/03/28 18:26:47;;;;;;;;;;;19.30;29.20;;;;;;8335191;28;19953;-52
2022/03/28 18:30:48;;;;;;;;;;;19.40;29.20;;;;;;8334949;28;20362;-49
2022/03/28 18:34:48;;;;;;;;;;;19.40;29.20;;;;;;8335072;28;20353;-47
2022/03/28 18:38:49;;;;;;;;;;;19.40;29.20;;;;;;8334746;28;20004;-49
2022/03/28 18:42:49;;;;;;;;;;;19.30;29.20;;;;;;8334919;28;19928;-48
2022/03/28 18:46:50;;;;;;;;;;;19.30;29.20;;;;;;8335215;28;20361;-51
2022/03/28 18:50:51;;;;;;;;;;;19.30;29.20;;;;;;8334362;28;20012;-46
2022/03/28 18:54:51;;;;;;;;;;;19.30;29.20;;;;;;8334555;28;19925;-48
2022/03/28 18:58:52;;;;;;;;;;;19.30;29.20;;;;;;8334485;28;20370;-51
2022/03/28 19:02:52;;;;;;;;;;;19.30;29.20;;;;;;8340828;28;20294;-48
2022/03/28 19:06:53;;;;;;;;;;;19.30;29.30;;;;;;8367459;28;19913;-46
2022/03/28 19:10:53;;;;;;;;;;;19.30;29.30;;;;;;8367110;28;19917;-48
2022/03/28 19:14:54;;;;;;;;;;;19.30;29.30;;;;;;8366334;28;19932;-48
2022/03/28 19:18:55;;;;;;;;;;;19.30;29.20;;;;;;8366902;28;19921;-48
2022/03/28 19:23:00;;;;;;;;;;;19.30;29.30;;;;;;8366636;28;19963;-47
2022/03/28 19:27:03;;;;;;;;;;;19.30;29.30;;;;;;8366315;28;19913;-50
2022/03/28 19:31:04;;;;;;;;;;;19.30;29.20;;;;;;8365317;28;19959;-49
2022/03/28 19:35:08;;;;;;;;;;;19.30;29.30;;;;;;8366326;28;20309;-51
2022/03/28 19:39:09;;;;;;;;;;;19.30;29.30;;;;;;8365864;28;19967;-49
2022/03/28 19:43:09;;;;;;;;;;;19.30;29.20;;;;;;8366178;28;19924;-48
2022/03/28 19:47:09;;;;;;;;;;;19.20;29.20;;;;;;8365764;28;19916;-47
2022/03/28 19:51:10;;;;;;;;;;;19.30;29.30;;;;;;8366011;28;19917;-47
2022/03/28 19:55:11;;;;;;;;;;;19.20;29.20;;;;;;8365721;28;19925;-48
2022/03/28 19:59:12;;;;;;;;;;;19.20;29.20;;;;;;8365468;28;19928;-48
2022/03/28 20:03:12;;;;;;;;;;;19.30;29.30;;;;;;8365380;28;19959;-52
2022/03/28 20:07:13;;;;;;;;;;;19.20;29.60;;;;;;8365548;28;19913;-48
2022/03/28 20:11:13;;;;;;;;;;;19.20;29.20;;;;;;8364775;28;20348;-48
2022/03/28 20:15:14;;;;;;;;;;;19.20;29.20;;;;;;8365216;28;19925;-47
2022/03/28 20:19:15;;;;;;;;;;;19.20;29.20;;;;;;8365212;28;19916;-48
2022/03/28 20:23:17;;;;;;;;;;;19.20;29.20;;;;;;8364415;28;20402;-47
2022/03/28 20:27:17;;;;;;;;;;;19.20;29.70;;;;;;8365274;28;20289;-50
2022/03/28 20:31:18;;;;;;;;;;;19.20;29.20;;;;;;8364576;28;19999;-49
2022/03/28 20:35:19;;;;;;;;;;;19.20;29.20;;;;;;8363915;28;19982;-49
2022/03/28 20:39:20;;;;;;;;;;;19.20;29.20;;;;;;8364362;28;19917;-47
2022/03/28 20:43:20;;;;;;;;;;;19.20;29.20;;;;;;8364278;28;19935;-48
2022/03/28 20:47:21;;;;;;;;;;;19.20;29.20;;;;;;8364014;28;20412;-47
2022/03/28 20:51:22;;;;;;;;;;;19.20;29.20;;;;;;8364308;28;20458;-47
2022/03/28 20:55:22;;;;;;;;;;;19.20;29.20;;;;;;8364179;28;20003;-49
2022/03/28 20:59:23;;;;;;;;;;;19.20;29.20;;;;;;8363556;28;20022;-47
2022/03/28 21:03:24;;;;;;;;;;;19.20;29.20;;;;;;8363874;28;19917;-47
2022/03/28 21:07:24;;;;;;;;;;;19.20;29.20;;;;;;8363974;28;20446;-47
2022/03/28 21:11:25;;;;;;;;;;;19.20;29.20;;;;;;8363084;28;19923;-47
2022/03/28 21:15:26;;;;;;;;;;;19.10;29.20;;;;;;8363457;28;20210;-46
2022/03/28 21:19:28;;;;;;;;;;;19.10;29.20;;;;;;8363551;28;19924;-47
2022/03/28 21:23:29;;;;;;;;;;;19.10;29.20;;;;;;8362842;28;19917;-47
2022/03/28 21:27:30;;;;;;;;;;;19.10;29.30;;;;;;8363711;28;19924;-48
2022/03/28 21:31:31;;;;;;;;;;;19.10;29.20;;;;;;8363507;28;20362;-48
2022/03/28 21:35:32;;;;;;;;;;;19.10;29.20;;;;;;8362577;28;19924;-46
2022/03/28 21:39:37;;;;;;;;;;;19.10;29.20;;;;;;8363414;28;19959;-46
2022/03/28 21:43:37;;;;;;;;;;;19.10;29.20;;;;;;8363143;28;19917;-47
2022/03/28 21:47:38;;;;;;;;;;;19.10;29.20;;;;;;8362626;28;19924;-47
2022/03/28 21:51:38;;;;;;;;;;;19.10;29.30;;;;;;8362525;28;19948;-50
2022/03/28 21:55:39;;;;;;;;;;;19.10;29.30;;;;;;8368760;28;20444;-48
2022/03/28 21:59:39;;;;;;;;;;;19.10;29.30;;;;;;8368898;28;19917;-47
2022/03/28 22:03:40;;;;;;;;;;;19.10;29.30;;;;;;8368371;28;19914;-48
2022/03/28 22:07:40;;;;;;;;;;;19.00;29.20;;;;;;8369547;28;19913;-51
2022/03/28 22:11:41;;;;;;;;;;;19.00;29.20;;;;;;8345309;28;19925;-47
2022/03/28 22:15:41;;;;;;;;;;;19.00;29.20;;;;;;8336009;28;20353;-47
2022/03/28 22:19:42;;;;;;;;;;;19.00;29.30;;;;;;8335643;28;19921;-47
2022/03/28 22:23:42;;;;;;;;;;;19.00;29.30;;;;;;8335497;28;20293;-50
2022/03/28 22:27:43;;;;;;;;;;;19.00;29.20;;;;;;8335774;28;19917;-49
2022/03/28 22:31:43;;;;;;;;;;;19.00;29.30;;;;;;8335746;28;19917;-48
2022/03/28 22:35:44;;;;;;;;;;;19.00;29.30;;;;;;8342799;28;19929;-52
2022/03/28 22:39:45;;;;;;;;;;;19.00;29.20;;;;;;8386649;28;19913;-52
2022/03/28 22:43:45;;;;;;;;;;;19.00;29.30;;;;;;8335522;28;19947;-55
2022/03/28 22:47:46;;;;;;;;;;;19.00;29.30;;;;;;8334487;28;19917;-47
2022/03/28 22:51:47;;;;;;;;;;;19.00;29.30;;;;;;8334810;28;19928;-48
2022/03/28 22:55:48;;;;;;;;;;;19.00;29.30;;;;;;8334897;28;20370;-47
2022/03/28 22:59:48;;;;;;;;;;;18.90;29.30;;;;;;8334199;28;19943;-47
2022/03/28 23:03:49;;;;;;;;;;;18.90;29.30;;;;;;8334618;28;19980;-47
2022/03/28 23:07:49;;;;;;;;;;;18.90;29.30;;;;;;8334578;28;19924;-47
2022/03/28 23:11:50;;;;;;;;;;;18.90;29.30;;;;;;8333780;28;19917;-49
2022/03/28 23:15:50;;;;;;;;;;;18.90;29.30;;;;;;8334230;28;20392;-48
2022/03/28 23:19:51;;;;;;;;;;;18.90;29.30;;;;;;8333928;28;19918;-48
2022/03/28 23:23:54;;;;;;;;;;;18.90;29.30;;;;;;8333678;28;19940;-47
2022/03/28 23:27:55;;;;;;;;;;;18.80;29.30;;;;;;8333947;28;19923;-48